createdAt,value
2018-03-19T00:01:18.490Z,-2.20
2018-03-19T00:03:45.363Z,-2.40
2018-03-19T00:06:12.305Z,-2.30
2018-03-19T00:08:39.202Z,-2.20
2018-03-19T00:11:06.185Z,-2.30
2018-03-19T00:13:33.794Z,-2.30
2018-03-19T00:16:00.771Z,-2.30
2018-03-19T00:18:27.684Z,-2.30
2018-03-19T00:20:54.562Z,-2.30
2018-03-19T00:23:21.513Z,-2.20
2018-03-19T00:25:48.383Z,-2.20
2018-03-19T00:28:16.054Z,-2.40
2018-03-19T00:30:42.919Z,-2.50
2018-03-19T00:33:09.775Z,-2.40
2018-03-19T00:35:36.705Z,-2.50
2018-03-19T00:38:03.659Z,-2.30
2018-03-19T00:40:30.603Z,-2.40
2018-03-19T00:42:57.556Z,-2.30
2018-03-19T00:45:24.492Z,-2.30
2018-03-19T00:47:51.439Z,-2.30
2018-03-19T00:50:18.293Z,-2.20
2018-03-19T00:52:45.235Z,-2.00
2018-03-19T00:55:12.146Z,-2.20
2018-03-19T00:57:39.848Z,-2.10
2018-03-19T01:00:06.736Z,-2.10
2018-03-19T01:02:34.420Z,-2.20
2018-03-19T01:05:01.428Z,-2.20
2018-03-19T01:07:28.350Z,-2.20
2018-03-19T01:09:55.289Z,-2.20
2018-03-19T01:12:22.155Z,-2.20
2018-03-19T01:14:49.019Z,-2.10
2018-03-19T01:17:16.374Z,-2.20
2018-03-19T01:19:43.248Z,-2.30
2018-03-19T01:22:10.251Z,-2.10
2018-03-19T01:24:37.131Z,-2.00
2018-03-19T01:27:04.808Z,-2.00
2018-03-19T01:29:32.425Z,-1.90
2018-03-19T01:31:59.359Z,-1.90
2018-03-19T01:34:26.216Z,-2.00
2018-03-19T01:36:53.220Z,-1.90
2018-03-19T01:39:20.188Z,-2.10
2018-03-19T01:41:47.146Z,-2.10
2018-03-19T01:44:14.003Z,-2.20
2018-03-19T01:46:40.887Z,-2.10
2018-03-19T01:49:08.581Z,-2.20
2018-03-19T01:51:35.451Z,-2.20
2018-03-19T01:54:02.381Z,-2.00
2018-03-19T01:56:29.258Z,-2.00
2018-03-19T01:58:56.189Z,-2.00
2018-03-19T02:01:23.056Z,-1.90
2018-03-19T02:03:49.987Z,-2.10
2018-03-19T02:06:16.925Z,-2.10
2018-03-19T02:08:43.867Z,-2.10
2018-03-19T02:11:10.820Z,-2.20
2018-03-19T02:13:37.771Z,-2.20
2018-03-19T02:16:04.649Z,-2.00
2018-03-19T02:18:31.516Z,-2.00
2018-03-19T02:20:58.444Z,-2.10
2018-03-19T02:23:25.396Z,-2.30
2018-03-19T02:25:52.377Z,-2.20
2018-03-19T02:28:19.419Z,-2.00
2018-03-19T02:30:46.306Z,-2.20
2018-03-19T02:33:13.178Z,-2.20
2018-03-19T02:35:40.168Z,-2.20
2018-03-19T02:38:07.112Z,-2.10
2018-03-19T02:40:33.986Z,-2.00
2018-03-19T02:43:00.921Z,-2.00
2018-03-19T02:45:27.854Z,-2.10
2018-03-19T02:47:54.765Z,-2.00
2018-03-19T02:50:21.652Z,-2.10
2018-03-19T02:52:48.637Z,-1.90
2018-03-19T02:55:15.568Z,-1.80
2018-03-19T02:57:42.565Z,-2.00
2018-03-19T03:00:09.530Z,-2.00
2018-03-19T03:02:36.537Z,-2.10
2018-03-19T03:05:03.536Z,-2.10
2018-03-19T03:07:30.550Z,-2.10
2018-03-19T03:09:57.420Z,-2.10
2018-03-19T03:12:24.364Z,-1.90
2018-03-19T03:14:51.311Z,-2.10
2018-03-19T03:17:18.182Z,-2.00
2018-03-19T03:19:45.123Z,-2.10
2018-03-19T03:22:12.003Z,-1.90
2018-03-19T03:24:38.948Z,-2.10
2018-03-19T03:27:06.561Z,-2.10
2018-03-19T03:29:33.516Z,-2.20
2018-03-19T03:32:00.397Z,-2.10
2018-03-19T03:34:28.068Z,-2.00
2018-03-19T03:36:54.942Z,-2.00
2018-03-19T03:39:21.829Z,-2.00
2018-03-19T03:41:49.773Z,-2.00
2018-03-19T03:44:16.638Z,-2.00
2018-03-19T03:46:43.595Z,-2.10
2018-03-19T03:49:10.447Z,-2.30
2018-03-19T03:51:37.340Z,-2.30
2018-03-19T03:54:04.304Z,-2.40
2018-03-19T03:56:31.229Z,-2.30
2018-03-19T03:58:58.080Z,-2.30
2018-03-19T04:01:25.028Z,-2.30
2018-03-19T04:03:51.969Z,-2.40
2018-03-19T04:06:18.943Z,-2.40
2018-03-19T04:08:45.881Z,-2.30
2018-03-19T04:11:12.819Z,-2.30
2018-03-19T04:13:39.788Z,-2.50
2018-03-19T04:16:06.744Z,-2.50
2018-03-19T04:18:33.611Z,-2.30
2018-03-19T04:21:00.552Z,-2.30
2018-03-19T04:23:27.430Z,-2.50
2018-03-19T04:25:54.372Z,-2.40
2018-03-19T04:28:21.260Z,-2.40
2018-03-19T04:30:48.195Z,-2.60
2018-03-19T04:33:15.064Z,-2.50
2018-03-19T04:35:42.764Z,-2.60
2018-03-19T04:38:10.534Z,-2.60
2018-03-19T04:40:37.484Z,-2.60
2018-03-19T04:43:04.396Z,-2.60
2018-03-19T04:45:32.243Z,-2.60
2018-03-19T04:47:59.933Z,-2.70
2018-03-19T04:50:27.600Z,-2.70
2018-03-19T04:52:55.282Z,-2.70
2018-03-19T04:55:22.180Z,-2.70
2018-03-19T04:57:49.135Z,-2.60
2018-03-19T05:00:16.839Z,-2.50
2018-03-19T05:02:43.767Z,-2.50
2018-03-19T05:05:10.697Z,-2.60
2018-03-19T05:07:38.368Z,-2.70
2018-03-19T05:10:06.036Z,-2.80
2018-03-19T05:12:33.031Z,-2.80
2018-03-19T05:14:59.966Z,-2.60
2018-03-19T05:17:26.891Z,-2.60
2018-03-19T05:19:53.792Z,-2.50
2018-03-19T05:22:20.657Z,-2.40
2018-03-19T05:24:48.389Z,-2.50
2018-03-19T05:27:28.961Z,-2.50
2018-03-19T05:29:56.821Z,-2.30
2018-03-19T05:32:23.760Z,-2.20
2018-03-19T05:34:50.723Z,-1.90
2018-03-19T05:37:17.682Z,-1.90
2018-03-19T05:39:46.219Z,-1.80
2018-03-19T05:42:13.151Z,-1.80
2018-03-19T05:44:40.091Z,-2.10
2018-03-19T05:47:07.179Z,-2.20
2018-03-19T05:49:34.070Z,-2.20
2018-03-19T05:52:01.759Z,-2.10
2018-03-19T05:54:28.716Z,-2.10
2018-03-19T05:56:55.649Z,-2.30
2018-03-19T05:59:22.623Z,-2.20
2018-03-19T06:01:49.547Z,-2.40
2018-03-19T06:04:16.439Z,-2.40
2018-03-19T06:06:43.396Z,-2.30
2018-03-19T06:09:11.015Z,-2.40
2018-03-19T06:11:37.922Z,-2.40
2018-03-19T06:14:04.880Z,-2.20
2018-03-19T06:16:31.776Z,-2.30
2018-03-19T06:18:58.720Z,-2.30
2018-03-19T06:21:25.592Z,-2.10
2018-03-19T06:23:52.532Z,-2.50
2018-03-19T06:26:19.407Z,-2.40
2018-03-19T06:28:46.366Z,-2.50
2018-03-19T06:31:13.245Z,-2.60
2018-03-19T06:33:40.193Z,-2.40
2018-03-19T06:36:07.186Z,-2.30
2018-03-19T06:38:34.190Z,-2.30
2018-03-19T06:41:01.135Z,-2.20
2018-03-19T06:43:28.056Z,-2.30
2018-03-19T06:45:55.000Z,-2.50
2018-03-19T06:48:21.947Z,-2.70
2018-03-19T06:50:48.857Z,-2.50
2018-03-19T06:53:15.802Z,-2.40
2018-03-19T06:55:42.829Z,-2.60
2018-03-19T06:58:10.553Z,-2.10
2018-03-19T07:00:37.443Z,-2.20
2018-03-19T07:03:05.224Z,-2.20
2018-03-19T07:05:32.172Z,-2.20
2018-03-19T07:07:59.048Z,-2.20
2018-03-19T07:10:25.995Z,-2.30
2018-03-19T07:12:52.871Z,-2.00
2018-03-19T07:15:19.897Z,-2.10
2018-03-19T07:17:46.804Z,-1.70
2018-03-19T07:20:13.763Z,-1.90
2018-03-19T07:22:40.655Z,-1.70
2018-03-19T07:25:07.535Z,-2.10
2018-03-19T07:27:34.583Z,-2.10
2018-03-19T07:30:02.283Z,-1.70
2018-03-19T07:32:29.154Z,-1.70
2018-03-19T07:34:56.028Z,-1.40
2018-03-19T07:37:23.702Z,-1.60
2018-03-19T07:39:50.647Z,-1.60
2018-03-19T07:42:17.594Z,-1.40
2018-03-19T07:44:44.515Z,-1.50
2018-03-19T07:47:11.448Z,-1.30
2018-03-19T07:49:38.312Z,-1.30
2018-03-19T07:52:05.236Z,-1.50
2018-03-19T07:54:32.103Z,-1.80
2018-03-19T07:56:59.071Z,-1.70
2018-03-19T07:59:25.935Z,-1.40
2018-03-19T08:01:52.921Z,-1.40
2018-03-19T08:04:19.800Z,-1.80
2018-03-19T08:06:46.724Z,-1.60
2018-03-19T08:09:13.600Z,-1.60
2018-03-19T08:11:40.552Z,-1.20
2018-03-19T08:14:07.569Z,-1.40
2018-03-19T08:16:34.434Z,-1.40
2018-03-19T08:19:01.356Z,-1.50
2018-03-19T08:21:28.259Z,-1.20
2018-03-19T08:23:55.272Z,-0.40
2018-03-19T08:26:22.148Z,-0.60
2018-03-19T08:28:49.104Z,-0.80
2018-03-19T08:31:15.984Z,-0.90
2018-03-19T08:33:57.237Z,-0.70
2018-03-19T08:36:25.815Z,-0.30
2018-03-19T08:38:52.836Z,-0.30
2018-03-19T08:41:19.699Z,-0.40
2018-03-19T08:43:46.627Z,-0.30
2018-03-19T08:46:13.580Z,-0.50
2018-03-19T08:48:40.463Z,0.00
2018-03-19T08:51:07.349Z,-0.50
2018-03-19T08:53:34.300Z,-0.40
2018-03-19T08:56:01.333Z,-0.60
2018-03-19T08:58:28.380Z,-0.30
2018-03-19T09:00:56.033Z,0.40
2018-03-19T09:03:22.942Z,0.40
2018-03-19T09:05:49.906Z,0.30
2018-03-19T09:08:16.775Z,0.10
2018-03-19T09:10:44.456Z,0.60
2018-03-19T09:13:12.098Z,1.50
2018-03-19T09:15:39.040Z,1.50
2018-03-19T09:18:05.924Z,1.20
2018-03-19T09:20:32.822Z,1.10
2018-03-19T09:22:59.815Z,1.40
2018-03-19T09:25:26.826Z,1.20
2018-03-19T09:27:53.691Z,2.00
2018-03-19T09:30:20.629Z,1.70
2018-03-19T09:32:48.309Z,3.10
2018-03-19T09:35:15.256Z,3.00
2018-03-19T09:37:42.128Z,3.60
2018-03-19T09:40:09.009Z,2.60
2018-03-19T09:42:35.955Z,5.80
2018-03-19T09:45:02.903Z,6.30
2018-03-19T09:47:29.850Z,8.10
2018-03-19T09:49:56.725Z,5.30
2018-03-19T09:52:23.667Z,6.30
2018-03-19T09:54:50.615Z,5.90
2018-03-19T09:57:17.495Z,5.00
2018-03-19T09:59:44.550Z,4.00
2018-03-19T10:02:11.507Z,3.40
2018-03-19T10:04:38.394Z,4.20
2018-03-19T10:07:05.280Z,3.30
2018-03-19T10:09:32.232Z,2.60
2018-03-19T10:11:59.112Z,3.30
2018-03-19T10:14:26.824Z,4.30
2018-03-19T10:16:53.749Z,4.30
2018-03-19T10:19:20.624Z,4.10
2018-03-19T10:21:47.562Z,3.30
2018-03-19T10:24:14.539Z,2.80
2018-03-19T10:26:41.424Z,2.20
2018-03-19T10:29:08.308Z,3.40
2018-03-19T10:31:35.242Z,3.10
2018-03-19T10:34:02.127Z,4.20
2018-03-19T10:36:29.071Z,3.10
2018-03-19T10:38:56.016Z,4.30
2018-03-19T10:41:22.907Z,4.00
2018-03-19T10:43:49.917Z,4.60
2018-03-19T10:46:16.868Z,4.90
2018-03-19T10:48:43.751Z,3.90
2018-03-19T10:51:10.685Z,4.90
2018-03-19T10:53:37.562Z,5.30
2018-03-19T10:56:04.515Z,5.00
2018-03-19T10:58:31.550Z,3.80
2018-03-19T11:01:04.318Z,4.70
2018-03-19T11:03:31.354Z,4.10
2018-03-19T11:06:04.224Z,4.70
2018-03-19T11:08:33.891Z,4.30
2018-03-19T11:11:00.843Z,4.20
2018-03-19T11:13:27.727Z,3.90
2018-03-19T11:15:55.412Z,4.40
2018-03-19T11:18:22.298Z,4.30
2018-03-19T11:20:49.255Z,4.60
2018-03-19T11:23:16.151Z,4.00
2018-03-19T11:25:43.111Z,4.10
2018-03-19T11:28:10.064Z,5.00
2018-03-19T11:30:37.037Z,5.10
2018-03-19T11:33:03.937Z,5.30
2018-03-19T11:35:30.842Z,3.90
2018-03-19T11:37:57.796Z,5.10
2018-03-19T11:40:25.488Z,5.40
2018-03-19T11:42:52.360Z,5.30
2018-03-19T11:45:19.308Z,3.60
2018-03-19T11:47:46.187Z,4.20
2018-03-19T11:50:13.138Z,4.40
2018-03-19T11:52:40.076Z,3.90
2018-03-19T11:55:07.078Z,4.30
2018-03-19T11:57:33.955Z,3.80
2018-03-19T12:00:00.912Z,4.30
2018-03-19T12:02:27.875Z,4.10
2018-03-19T12:04:55.499Z,4.30
2018-03-19T12:07:22.472Z,4.30
2018-03-19T12:09:49.424Z,5.00
2018-03-19T12:12:16.316Z,4.70
2018-03-19T12:14:43.205Z,3.90
2018-03-19T12:17:10.134Z,3.30
2018-03-19T12:19:37.067Z,4.10
2018-03-19T12:22:05.084Z,4.60
2018-03-19T12:24:32.709Z,4.60
2018-03-19T12:26:59.756Z,4.50
2018-03-19T12:29:26.648Z,4.90
2018-03-19T12:31:54.259Z,4.90
2018-03-19T12:34:21.256Z,4.90
2018-03-19T12:36:48.940Z,5.10
2018-03-19T12:39:15.872Z,5.10
2018-03-19T12:41:42.750Z,5.40
2018-03-19T12:44:09.692Z,5.40
2018-03-19T12:46:36.656Z,5.20
2018-03-19T12:49:04.266Z,5.70
2018-03-19T12:51:32.612Z,5.10
2018-03-19T12:53:59.575Z,5.40
2018-03-19T12:56:26.526Z,5.10
2018-03-19T12:58:53.396Z,4.80
2018-03-19T13:01:20.339Z,4.90
2018-03-19T13:03:47.298Z,4.70
2018-03-19T13:06:14.200Z,4.20
2018-03-19T13:08:41.151Z,4.60
2018-03-19T13:11:14.714Z,4.90
2018-03-19T13:13:41.696Z,5.10
2018-03-19T13:16:10.034Z,4.40
2018-03-19T13:18:38.294Z,4.10
2018-03-19T13:21:07.288Z,4.50
2018-03-19T13:23:44.373Z,4.20
2018-03-19T13:26:20.593Z,4.50
2018-03-19T13:29:03.339Z,4.50
2018-03-19T13:31:31.056Z,3.80
2018-03-19T13:33:59.108Z,3.60
2018-03-19T13:36:26.062Z,3.50
2018-03-19T13:38:59.815Z,3.60
2018-03-19T13:41:27.551Z,3.50
2018-03-19T13:43:54.411Z,3.30
2018-03-19T13:46:21.332Z,3.60
2018-03-19T13:48:48.529Z,3.90
2018-03-19T13:51:16.239Z,4.40
2018-03-19T13:53:49.320Z,4.40
2018-03-19T13:56:17.058Z,4.50
2018-03-19T13:58:43.936Z,4.50
2018-03-19T14:01:17.795Z,4.20
2018-03-19T14:03:45.281Z,4.20
2018-03-19T14:06:19.023Z,4.00
2018-03-19T14:08:46.478Z,3.50
2018-03-19T14:11:13.517Z,3.90
2018-03-19T14:13:40.476Z,4.20
2018-03-19T14:16:07.348Z,4.30
2018-03-19T14:18:39.025Z,4.20
2018-03-19T14:21:11.830Z,4.50
2018-03-19T14:23:41.683Z,4.80
2018-03-19T14:26:08.577Z,4.70
2018-03-19T14:28:37.535Z,3.90
2018-03-19T14:31:17.739Z,4.10
2018-03-19T14:33:45.436Z,4.10
2018-03-19T14:36:13.613Z,3.70
2018-03-19T14:38:47.700Z,4.40
2018-03-19T14:41:31.216Z,4.30
2018-03-19T14:44:05.984Z,4.40
2018-03-19T14:46:41.258Z,4.20
2018-03-19T14:49:16.039Z,4.60
2018-03-19T14:51:55.932Z,4.90
2018-03-19T14:54:36.062Z,4.30
2018-03-19T14:57:11.296Z,4.50
2018-03-19T14:59:45.797Z,4.50
2018-03-19T15:02:13.217Z,4.10
2018-03-19T15:04:40.123Z,4.40
2018-03-19T15:07:07.132Z,4.10
2018-03-19T15:09:34.801Z,4.10
2018-03-19T15:12:01.752Z,4.10
2018-03-19T15:14:28.679Z,4.50
2018-03-19T15:16:55.637Z,4.50
2018-03-19T15:19:22.524Z,4.50
2018-03-19T15:21:49.500Z,4.10
2018-03-19T15:24:16.385Z,4.40
2018-03-19T15:26:43.264Z,4.50
2018-03-19T15:29:10.195Z,4.30
2018-03-19T15:31:37.145Z,4.60
2018-03-19T15:34:04.108Z,4.70
2018-03-19T15:36:30.987Z,4.50
2018-03-19T15:38:58.604Z,4.30
2018-03-19T15:41:25.598Z,4.30
2018-03-19T15:43:52.475Z,4.00
2018-03-19T15:46:19.427Z,3.80
2018-03-19T15:48:46.297Z,3.90
2018-03-19T15:51:13.253Z,3.70
2018-03-19T15:53:40.198Z,3.40
2018-03-19T15:56:07.131Z,3.20
2018-03-19T15:58:38.854Z,3.00
2018-03-19T16:01:05.794Z,3.10
2018-03-19T16:03:32.661Z,3.40
2018-03-19T16:06:07.343Z,3.40
2018-03-19T16:08:34.618Z,3.50
2018-03-19T16:11:10.941Z,3.40
2018-03-19T16:13:39.139Z,3.40
2018-03-19T16:16:18.654Z,3.50
2018-03-19T16:18:48.525Z,3.50
2018-03-19T16:21:26.834Z,3.40
2018-03-19T16:24:04.820Z,3.40
2018-03-19T16:26:35.144Z,3.30
2018-03-19T16:29:08.521Z,2.70
2018-03-19T16:31:38.704Z,2.70
2018-03-19T16:34:09.951Z,2.80
2018-03-19T16:36:39.722Z,2.80
2018-03-19T16:39:10.487Z,2.80
2018-03-19T16:41:40.315Z,2.70
2018-03-19T16:44:10.675Z,2.50
2018-03-19T16:46:40.844Z,2.50
2018-03-19T16:49:11.838Z,2.30
2018-03-19T16:51:41.528Z,2.20
2018-03-19T16:54:09.710Z,2.20
2018-03-19T16:56:41.303Z,1.90
2018-03-19T16:59:11.839Z,1.90
2018-03-19T17:01:42.532Z,1.60
2018-03-19T17:04:13.319Z,1.90
2018-03-19T17:06:43.528Z,1.90
2018-03-19T17:09:13.674Z,1.90
2018-03-19T17:11:44.296Z,1.80
2018-03-19T17:14:14.862Z,1.50
2018-03-19T17:16:45.814Z,1.70
2018-03-19T17:19:18.065Z,1.40
2018-03-19T17:21:49.325Z,1.30
2018-03-19T17:24:20.376Z,1.40
2018-03-19T17:26:50.437Z,1.30
2018-03-19T17:29:21.191Z,1.40
2018-03-19T17:31:52.072Z,1.20
2018-03-19T17:34:23.167Z,1.20
2018-03-19T17:36:53.201Z,1.30
2018-03-19T17:39:23.732Z,1.30
2018-03-19T17:41:53.187Z,1.40
2018-03-19T17:44:24.418Z,1.10
2018-03-19T17:46:54.182Z,1.20
2018-03-19T17:49:23.719Z,1.10
2018-03-19T17:51:54.539Z,1.10
2018-03-19T17:54:25.159Z,1.10
2018-03-19T17:56:55.814Z,1.00
2018-03-19T17:59:26.289Z,1.00
2018-03-19T18:01:54.655Z,0.90
2018-03-19T18:04:21.703Z,0.90
2018-03-19T18:06:48.590Z,0.90
2018-03-19T18:09:16.279Z,0.90
2018-03-19T18:11:43.200Z,0.90
2018-03-19T18:14:10.282Z,0.90
2018-03-19T18:16:37.222Z,0.90
2018-03-19T18:19:04.188Z,0.80
2018-03-19T18:21:31.099Z,0.80
2018-03-19T18:23:58.073Z,0.80
2018-03-19T18:26:25.063Z,0.80
2018-03-19T18:28:51.931Z,0.70
2018-03-19T18:31:18.801Z,0.60
2018-03-19T18:33:45.751Z,0.50
2018-03-19T18:36:12.639Z,0.60
2018-03-19T18:38:39.499Z,0.50
2018-03-19T18:41:06.497Z,0.40
2018-03-19T18:43:33.469Z,0.30
2018-03-19T18:46:00.368Z,0.40
2018-03-19T18:48:27.260Z,0.40
2018-03-19T18:50:55.025Z,0.30
2018-03-19T18:53:21.911Z,0.40
2018-03-19T18:55:48.864Z,0.40
2018-03-19T18:58:16.075Z,0.40
2018-03-19T19:00:44.142Z,0.50
2018-03-19T19:03:11.816Z,0.30
2018-03-19T19:05:38.799Z,0.30
2018-03-19T19:08:05.787Z,0.30
2018-03-19T19:10:32.784Z,0.30
2018-03-19T19:12:59.687Z,0.20
2018-03-19T19:15:26.608Z,0.30
2018-03-19T19:17:53.550Z,0.20
2018-03-19T19:20:20.488Z,0.30
2018-03-19T19:22:47.440Z,0.20
2018-03-19T19:25:14.312Z,0.20
2018-03-19T19:27:41.198Z,0.20
2018-03-19T19:30:08.885Z,0.40
2018-03-19T19:32:35.814Z,0.40
2018-03-19T19:35:02.801Z,0.10
2018-03-19T19:37:29.733Z,0.10
2018-03-19T19:39:56.694Z,-0.20
2018-03-19T19:42:23.726Z,-0.30
2018-03-19T19:44:50.664Z,-0.60
2018-03-19T19:47:17.543Z,-0.30
2018-03-19T19:49:44.485Z,-0.40
2018-03-19T19:52:11.360Z,-0.50
2018-03-19T19:54:38.318Z,-0.50
2018-03-19T19:57:06.027Z,-0.40
2018-03-19T19:59:32.980Z,-0.40
2018-03-19T20:01:59.924Z,-0.60
2018-03-19T20:04:26.800Z,-0.70
2018-03-19T20:06:53.753Z,-0.60
2018-03-19T20:09:20.629Z,-0.70
2018-03-19T20:11:47.530Z,-0.80
2018-03-19T20:14:14.464Z,-0.70
2018-03-19T20:16:41.389Z,-0.60
2018-03-19T20:19:08.271Z,-0.80
2018-03-19T20:21:35.212Z,-0.70
2018-03-19T20:24:02.085Z,-0.80
2018-03-19T20:26:29.079Z,-0.90
2018-03-19T20:28:56.014Z,-0.60
2018-03-19T20:31:22.876Z,-0.50
2018-03-19T20:33:49.826Z,-0.60
2018-03-19T20:36:16.792Z,-0.60
2018-03-19T20:38:45.436Z,-0.80
2018-03-19T20:41:12.660Z,-0.80
2018-03-19T20:43:40.347Z,-0.80
2018-03-19T20:46:07.306Z,-0.90
2018-03-19T20:48:34.183Z,-0.70
2018-03-19T20:51:01.181Z,-0.60
2018-03-19T20:53:28.061Z,-0.70
2018-03-19T20:55:55.079Z,-1.00
2018-03-19T20:58:22.047Z,-0.80
2018-03-19T21:00:49.698Z,-0.80
2018-03-19T21:03:16.732Z,-0.90
2018-03-19T21:05:43.687Z,-0.70
2018-03-19T21:08:10.561Z,-0.70
2018-03-19T21:13:32.527Z,-0.70
2018-03-19T21:15:59.582Z,-0.50
2018-03-19T21:18:27.376Z,-0.70
2018-03-19T21:20:56.061Z,-0.70
2018-03-19T21:23:23.198Z,-0.70
2018-03-19T21:25:52.124Z,-0.60
2018-03-19T21:28:19.960Z,-0.70
2018-03-19T21:30:48.617Z,-0.60
2018-03-19T21:33:16.731Z,-0.60
2018-03-19T21:35:45.707Z,-0.80
2018-03-19T21:38:14.829Z,-0.70
2018-03-19T21:40:41.913Z,-0.90
2018-03-19T21:43:08.853Z,-0.70
2018-03-19T21:45:35.817Z,-0.80
2018-03-19T21:48:02.728Z,-1.00
2018-03-19T21:50:29.672Z,-0.90
2018-03-19T21:52:57.909Z,-0.90
2018-03-19T21:55:25.029Z,-0.90
2018-03-19T21:58:01.075Z,-1.00
2018-03-19T22:00:39.713Z,-0.90
2018-03-19T22:03:18.088Z,-0.90
2018-03-19T22:05:56.826Z,-0.90
2018-03-19T22:08:36.209Z,-1.00
2018-03-19T22:11:13.078Z,-1.00
2018-03-19T22:13:52.462Z,-1.10
2018-03-19T22:16:30.330Z,-1.10
2018-03-19T22:19:08.928Z,-1.00
2018-03-19T22:21:46.063Z,-1.00
2018-03-19T22:24:24.552Z,-1.00
2018-03-19T22:26:52.577Z,-1.00
2018-03-19T22:29:26.006Z,-1.00
2018-03-19T22:32:04.629Z,-1.00
2018-03-19T22:34:43.963Z,-1.00
2018-03-19T22:37:22.815Z,-1.00
2018-03-19T22:39:51.175Z,-1.10
2018-03-19T22:42:21.978Z,-1.10
2018-03-19T22:44:49.601Z,-1.10
2018-03-19T22:47:16.584Z,-1.10
2018-03-19T22:49:55.547Z,-1.10
2018-03-19T22:52:23.433Z,-1.10
2018-03-19T22:54:50.816Z,-1.30
2018-03-19T22:57:18.496Z,-1.20
2018-03-19T22:59:45.456Z,-1.20
2018-03-19T23:02:23.270Z,-1.20
2018-03-19T23:05:10.517Z,-1.10
2018-03-19T23:07:50.009Z,-1.30
2018-03-19T23:10:27.980Z,-1.30
2018-03-19T23:13:06.896Z,-1.30
2018-03-19T23:15:41.884Z,-1.30
2018-03-19T23:18:08.844Z,-1.40
2018-03-19T23:20:47.567Z,-1.30
2018-03-19T23:23:25.833Z,-1.30
2018-03-19T23:26:03.503Z,-1.40
2018-03-19T23:28:43.730Z,-1.50
2018-03-19T23:31:21.859Z,-1.50
2018-03-19T23:33:49.617Z,-1.60
2018-03-19T23:36:27.558Z,-1.60
2018-03-19T23:39:06.903Z,-1.50
2018-03-19T23:41:37.059Z,-1.40
2018-03-19T23:44:03.994Z,-1.50
2018-03-19T23:46:42.299Z,-1.40
2018-03-19T23:49:20.397Z,-1.50
2018-03-19T23:51:47.649Z,-1.50
2018-03-19T23:54:32.707Z,-1.50
2018-03-19T23:57:11.158Z,-1.40
2018-03-19T23:59:38.869Z,-1.50
